Time;durP1;ratioP1;P1;durP2;ratioP2;P2;SDS_P1;SDS_P2;PMS_P1;PMS_P2;Temp;Humidity;BMP_temperature;BMP_pressure;BME280_temperature;BME280_humidity;BME280_pressure;Samples;Min_cycle;Max_cycle;Signal;HPM_P1;HPM_P2
2022/06/17 00:01:36;;;;;;;2.00;1.00;;;;;;;22.51;39.19;99171.56;5091266;28;20042;-69
2022/06/17 00:04:02;;;;;;;3.95;1.25;;;;;;;22.51;39.20;99166.16;5093067;28;20080;-71
2022/06/17 00:06:34;;;;;;;4.88;1.15;;;;;;;22.50;39.21;99171.78;5094945;28;20035;-71
2022/06/17 00:09:00;;;;;;;4.72;1.38;;;;;;;22.49;39.13;99175.50;5078569;28;20438;-69
2022/06/17 00:11:32;;;;;;;4.97;1.55;;;;;;;22.46;39.31;99170.53;5075590;28;20040;-70
2022/06/17 00:13:58;;;;;;;2.90;1.40;;;;;;;22.45;39.35;99168.88;5078454;28;20041;-70
2022/06/17 00:16:25;;;;;;;4.20;1.45;;;;;;;22.43;39.29;99166.34;5075015;28;20052;-71
2022/06/17 00:18:52;;;;;;;4.45;1.30;;;;;;;22.44;39.43;99169.91;5074750;28;20047;-69
2022/06/17 00:21:25;;;;;;;2.30;1.15;;;;;;;22.43;39.45;99177.13;5073180;28;20043;-70
2022/06/17 00:23:51;;;;;;;3.35;1.70;;;;;;;22.43;39.37;99173.63;5074478;28;20036;-71
2022/06/17 00:26:17;;;;;;;3.58;1.45;;;;;;;22.42;39.39;99175.50;5074389;28;20048;-70
2022/06/17 00:28:42;;;;;;;6.90;1.40;;;;;;;22.42;39.39;99174.66;5074543;28;20376;-68
2022/06/17 00:31:08;;;;;;;5.47;1.50;;;;;;;22.41;39.50;99176.50;5074080;28;20133;-69
2022/06/17 00:33:33;;;;;;;2.42;1.25;;;;;;;22.42;39.51;99180.91;5074210;28;20051;-68
2022/06/17 00:35:59;;;;;;;3.40;1.00;;;;;;;22.41;39.40;99184.59;5074112;28;20039;-70
2022/06/17 00:38:35;;;;;;;3.55;1.40;;;;;;;22.39;39.26;99182.09;5074030;28;20044;-71
2022/06/17 00:41:26;;;;;;;4.85;1.33;;;;;;;22.34;39.47;99178.38;5079398;28;20387;-70
2022/06/17 00:43:52;;;;;;;1.98;1.25;;;;;;;22.30;39.67;99187.88;5080757;28;20113;-71
2022/06/17 00:46:33;;;;;;;4.03;1.83;;;;;;;22.31;39.41;99194.94;5074253;28;20036;-70
2022/06/17 00:49:23;;;;;;;4.13;1.63;;;;;;;22.28;39.26;99193.50;5074177;28;20115;-69
2022/06/17 00:51:59;;;;;;;4.95;1.38;;;;;;;22.27;39.27;99196.41;5079344;28;20035;-71
2022/06/17 00:54:30;;;;;;;5.18;1.52;;;;;;;22.28;39.29;99198.06;5094253;28;20049;-69
2022/06/17 00:56:56;;;;;;;1.98;1.40;;;;;;;22.24;39.26;99198.47;5089401;28;20051;-69
2022/06/17 00:59:24;;;;;;;3.50;1.77;;;;;;;22.25;39.18;99194.75;5073937;28;20067;-68
2022/06/17 01:02:04;;;;;;;4.00;1.48;;;;;;;22.27;38.88;99201.81;5073487;28;20111;-69
2022/06/17 01:04:37;;;;;;;4.90;1.50;;;;;;;22.25;39.00;99194.75;5073562;28;20040;-70
2022/06/17 01:07:19;;;;;;;2.42;1.13;;;;;;;22.28;39.01;99195.38;5073843;28;20107;-68
2022/06/17 01:09:58;;;;;;;3.58;1.50;;;;;;;22.27;39.06;99197.22;5073512;28;20483;-69
2022/06/17 01:12:42;;;;;;;2.17;1.50;;;;;;;22.27;38.95;99194.53;5073564;28;20032;-69
2022/06/17 01:15:08;;;;;;;3.63;1.50;;;;;;;22.24;38.99;99193.09;5073640;28;20029;-68
2022/06/17 01:17:38;;;;;;;4.07;1.50;;;;;;;22.26;38.95;99192.88;5074322;28;20032;-72
2022/06/17 01:20:06;;;;;;;3.38;1.20;;;;;;;22.25;38.96;99186.66;5073597;28;20028;-68
2022/06/17 01:22:42;;;;;;;2.63;1.25;;;;;;;22.26;38.99;99190.19;5073038;28;20033;-70
2022/06/17 01:25:24;;;;;;;5.22;1.38;;;;;;;22.23;39.27;99183.34;5073411;28;20051;-70
2022/06/17 01:28:08;;;;;;;2.83;1.08;;;;;;;22.23;39.23;99182.50;5073118;28;20056;-70
2022/06/17 01:30:57;;;;;;;3.05;1.58;;;;;;;22.22;39.28;99191.63;5073587;28;20442;-69
2022/06/17 01:33:32;;;;;;;3.28;1.30;;;;;;;22.22;39.28;99187.06;5072826;28;20524;-69
2022/06/17 01:36:04;;;;;;;2.25;1.00;;;;;;;22.19;39.35;99190.16;5073249;28;20368;-69
2022/06/17 01:38:31;;;;;;;2.85;1.40;;;;;;;22.19;39.37;99183.97;5073040;28;20466;-68
2022/06/17 01:40:59;;;;;;;2.75;1.30;;;;;;;22.22;39.16;99186.22;5077721;28;20046;-70
2022/06/17 01:43:34;;;;;;;2.95;1.40;;;;;;;22.24;39.12;99171.53;5075446;28;20070;-70
2022/06/17 01:46:06;;;;;;;4.90;1.27;;;;;;;22.25;39.07;99196.59;5072695;28;20035;-67
2022/06/17 01:48:38;;;;;;;2.00;1.33;;;;;;;22.24;39.14;99195.78;5072828;28;20032;-69
2022/06/17 01:51:06;;;;;;;3.05;1.30;;;;;;;22.22;39.03;99197.84;5072866;28;20024;-70
2022/06/17 01:53:34;;;;;;;3.20;1.20;;;;;;;22.22;38.97;99202.41;5073181;28;20500;-69
2022/06/17 01:56:14;;;;;;;2.08;1.25;;;;;;;22.20;38.95;99204.50;5072831;28;20400;-69
2022/06/17 01:58:46;;;;;;;2.05;1.10;;;;;;;22.17;39.06;99197.63;5072680;28;20131;-68
2022/06/17 02:01:13;;;;;;;3.47;1.20;;;;;;;22.17;39.16;99199.50;5072546;28;20086;-70
2022/06/17 02:04:11;;;;;;;2.72;1.33;;;;;;;22.19;39.09;99209.03;5088031;28;20038;-70
2022/06/17 02:06:43;;;;;;;4.05;1.13;;;;;;;22.21;38.98;99206.97;5088668;28;20047;-71
2022/06/17 02:09:08;;;;;;;3.75;1.35;;;;;;;22.20;39.17;99199.09;5072793;28;20030;-69
2022/06/17 02:11:34;;;;;;;2.75;1.13;;;;;;;22.21;38.91;99201.56;5072285;28;20450;-69
2022/06/17 02:14:06;;;;;;;4.07;1.33;;;;;;;22.21;39.01;99201.56;5084127;28;20036;-69
2022/06/17 02:16:35;;;;;;;3.78;1.17;;;;;;;22.19;38.97;99203.66;5089250;28;20035;-69
2022/06/17 02:19:02;;;;;;;6.28;1.33;;;;;;;22.18;39.10;99201.97;5072512;28;20041;-68
2022/06/17 02:21:33;;;;;;;3.35;1.73;;;;;;;22.17;39.36;99196.81;5072332;28;20040;-70
2022/06/17 02:24:00;;;;;;;3.85;1.30;;;;;;;22.15;39.13;99204.25;5072356;28;20033;-71
2022/06/17 02:26:28;;;;;;;1.85;1.00;;;;;;;22.13;39.19;99201.75;5072375;28;20110;-68
2022/06/17 02:28:54;;;;;;;2.60;1.20;;;;;;;22.15;39.07;99196.19;5054470;28;20055;-71
2022/06/17 02:31:21;;;;;;;2.58;1.60;;;;;;;22.23;39.13;99198.66;5072563;28;20484;-70
2022/06/17 02:33:49;;;;;;;3.25;1.58;;;;;;;22.29;39.21;99202.41;5072288;28;20552;-71
2022/06/17 02:36:25;;;;;;;2.28;1.33;;;;;;;22.36;39.07;99203.25;5072219;28;20510;-68
2022/06/17 02:38:52;;;;;;;2.80;1.30;;;;;;;22.41;39.11;99200.78;5072231;28;20738;-69
2022/06/17 02:41:19;;;;;;;4.97;1.23;;;;;;;22.45;39.04;99198.53;5072444;28;20032;-69
2022/06/17 02:44:04;;;;;;;3.13;1.40;;;;;;;22.46;39.19;99197.47;5073764;28;20071;-69
2022/06/17 02:46:35;;;;;;;3.75;1.20;;;;;;;22.46;39.10;99201.00;5076124;28;20036;-69
2022/06/17 02:49:07;;;;;;;5.78;1.40;;;;;;;22.48;39.07;99200.81;5076486;28;20036;-69
2022/06/17 02:51:37;;;;;;;1.75;1.20;;;;;;;22.48;38.88;99201.63;5096575;28;20046;-68
2022/06/17 02:54:05;;;;;;;2.35;1.45;;;;;;;22.47;38.97;99197.25;5096279;28;20035;-69
2022/06/17 02:56:34;;;;;;;2.17;1.02;;;;;;;22.48;39.09;99198.94;5093695;28;20127;-68
2022/06/17 02:59:10;;;;;;;7.55;1.80;;;;;;;22.49;39.07;99199.78;5076173;28;20044;-70
2022/06/17 03:01:38;;;;;;;4.68;1.27;;;;;;;22.50;39.25;99207.66;5075893;28;20039;-70
2022/06/17 03:04:12;;;;;;;4.85;1.77;;;;;;;22.52;39.03;99208.28;5093038;28;20510;-69
2022/06/17 03:06:40;;;;;;;2.80;1.30;;;;;;;22.53;38.92;99209.09;5096253;28;20495;-70
2022/06/17 03:09:20;;;;;;;2.90;1.20;;;;;;;22.52;39.10;99210.97;5077338;28;20102;-69
2022/06/17 03:11:59;;;;;;;5.05;1.33;;;;;;;22.52;39.22;99210.97;5076262;28;20032;-70
2022/06/17 03:14:29;;;;;;;2.75;1.35;;;;;;;22.55;38.98;99218.66;5075422;28;20492;-69
2022/06/17 03:17:00;;;;;;;2.92;1.30;;;;;;;22.61;39.00;99216.13;5076262;28;20395;-69
2022/06/17 03:19:28;;;;;;;5.55;1.10;;;;;;;22.66;38.99;99208.25;5075505;28;20090;-70
2022/06/17 03:21:54;;;;;;;4.53;1.35;;;;;;;22.72;39.07;99202.03;5075708;28;20505;-70
2022/06/17 03:24:24;;;;;;;5.97;1.20;;;;;;;22.85;38.83;99206.59;5075490;28;20028;-69
2022/06/17 03:27:07;;;;;;;2.38;1.35;;;;;;;22.96;38.73;99199.72;5075774;28;20052;-69
2022/06/17 03:29:34;;;;;;;2.35;1.30;;;;;;;23.06;38.58;99210.09;5075408;28;20059;-68
2022/06/17 03:32:13;;;;;;;3.90;1.20;;;;;;;23.14;38.57;99213.41;5075370;28;20409;-70
2022/06/17 03:34:50;;;;;;;6.47;1.42;;;;;;;23.22;38.81;99208.81;5075524;28;20020;-71
2022/06/17 03:37:23;;;;;;;2.50;1.20;;;;;;;23.28;38.29;99195.31;5075228;28;20052;-70
2022/06/17 03:40:03;;;;;;;2.20;1.25;;;;;;;23.35;38.56;99206.09;5057242;28;20029;-70
2022/06/17 03:42:40;;;;;;;5.43;1.30;;;;;;;23.39;38.18;99203.78;5090519;28;20089;-69
2022/06/17 03:45:15;;;;;;;2.60;1.20;;;;;;;23.42;38.20;99201.50;5079676;28;20454;-70
2022/06/17 03:48:14;;;;;;;2.67;1.20;;;;;;;23.44;38.28;99210.22;5074835;28;20093;-70
2022/06/17 03:50:45;;;;;;;3.78;1.17;;;;;;;23.45;38.34;99206.44;5043806;28;20101;-70
2022/06/17 03:53:24;;;;;;;3.22;1.23;;;;;;;23.45;38.39;99209.16;5090636;28;20039;-71
2022/06/17 03:55:53;;;;;;;3.10;1.27;;;;;;;23.48;38.23;99210.63;5094846;28;20406;-69
2022/06/17 03:58:20;;;;;;;3.25;1.50;;;;;;;23.47;38.20;99208.97;5079947;28;20032;-69
2022/06/17 04:01:03;;;;;;;5.65;1.52;;;;;;;23.49;38.23;99214.13;5079282;28;20490;-69
2022/06/17 04:03:33;;;;;;;3.88;1.15;;;;;;;23.46;38.18;99215.41;5095003;28;20032;-71
2022/06/17 04:06:12;;;;;;;5.18;1.10;;;;;;;23.44;38.40;99209.38;5095183;28;20047;-70
2022/06/17 04:09:15;;;;;;;2.25;1.00;;;;;;;23.40;38.43;99206.28;5095178;28;20032;-71
2022/06/17 04:11:45;;;;;;;1.52;0.93;;;;;;;23.39;38.58;99206.47;5043617;28;20052;-70
2022/06/17 04:14:34;;;;;;;4.63;1.23;;;;;;;23.40;38.55;99206.28;5087709;28;20031;-69
2022/06/17 04:17:16;;;;;;;3.50;1.50;;;;;;;23.40;38.49;99211.69;5094609;28;20036;-69
2022/06/17 04:19:46;;;;;;;4.10;1.50;;;;;;;23.42;38.63;99203.34;5094897;28;20394;-69
2022/06/17 04:22:27;;;;;;;2.05;1.02;;;;;;;23.43;38.65;99202.31;5084026;28;20028;-71
2022/06/17 04:25:00;;;;;;;4.15;1.13;;;;;;;23.43;38.76;99208.56;5074829;28;20047;-69
2022/06/17 04:27:56;;;;;;;3.42;1.00;;;;;;;23.44;38.65;99201.28;5073937;28;20053;-70
2022/06/17 04:30:19;;;;;;;1.73;1.02;;;;;;;23.47;38.53;99198.16;5074127;28;20042;-69
2022/06/17 04:32:45;;;;;;;2.50;1.35;;;;;;;23.52;38.49;99202.91;5074027;28;20033;-71
2022/06/17 04:35:13;;;;;;;2.33;0.90;;;;;;;23.59;38.63;99195.63;5074647;28;20039;-71
2022/06/17 04:37:40;;;;;;;3.17;1.40;;;;;;;23.67;38.42;99187.25;5074523;28;20038;-70
2022/06/17 04:40:21;;;;;;;3.40;1.38;;;;;;;23.79;38.36;99184.72;5074030;28;20127;-69
2022/06/17 04:42:47;;;;;;;1.52;0.98;;;;;;;23.91;37.97;99187.53;5091430;28;20028;-69
2022/06/17 04:45:25;;;;;;;4.38;1.27;;;;;;;24.04;37.98;99189.38;5094108;28;20031;-70
2022/06/17 04:47:51;;;;;;;5.90;1.02;;;;;;;24.13;37.90;99179.94;5080225;28;20191;-73
2022/06/17 04:50:21;;;;;;;4.95;1.27;;;;;;;24.26;37.50;99181.72;5073959;28;20115;-70
2022/06/17 04:52:51;;;;;;;1.58;0.95;;;;;;;24.36;37.70;99182.06;5073779;28;20044;-70
2022/06/17 04:55:24;;;;;;;3.08;1.45;;;;;;;24.41;37.22;99184.09;5074331;28;20049;-70
2022/06/17 04:57:50;;;;;;;8.75;1.08;;;;;;;24.48;37.50;99186.78;5073957;28;20479;-68
2022/06/17 05:00:22;;;;;;;3.38;0.90;;;;;;;24.56;36.94;99182.97;5073502;28;20089;-69
2022/06/17 05:02:48;;;;;;;3.72;0.95;;;;;;;24.63;36.81;99183.72;5079142;28;20020;-69
2022/06/17 05:05:27;;;;;;;2.65;1.13;;;;;;;24.72;36.54;99192.41;5086317;28;20036;-70
2022/06/17 05:07:54;;;;;;;4.10;1.05;;;;;;;24.74;36.96;99191.13;5074137;28;20472;-71
2022/06/17 05:10:26;;;;;;;3.97;0.80;;;;;;;24.76;36.87;99185.53;5073662;28;20032;-69
2022/06/17 05:13:20;;;;;;;6.72;0.80;;;;;;;24.80;36.49;99192.13;5074976;28;20035;-69
2022/06/17 05:15:46;;;;;;;2.42;0.85;;;;;;;24.83;36.40;99194.38;5093862;28;20411;-71
2022/06/17 05:18:11;;;;;;;1.85;0.95;;;;;;;24.88;36.73;99197.25;5077442;28;20044;-71
2022/06/17 05:20:37;;;;;;;2.72;1.20;;;;;;;24.92;36.35;99193.06;5073791;28;20043;-70
2022/06/17 05:23:07;;;;;;;3.85;0.85;;;;;;;24.95;36.35;99200.72;5073054;28;20025;-70
2022/06/17 05:25:38;;;;;;;3.35;1.17;;;;;;;24.94;36.13;99190.94;5073216;28;20124;-70
2022/06/17 05:28:06;;;;;;;5.05;1.58;;;;;;;24.93;36.04;99193.88;5073013;28;20056;-71
2022/06/17 05:30:36;;;;;;;1.92;1.02;;;;;;;24.99;36.27;99185.69;5073019;28;20040;-72
2022/06/17 05:33:01;;;;;;;5.38;0.70;;;;;;;25.03;35.90;99177.94;5072831;28;20154;-71
2022/06/17 05:35:27;;;;;;;1.60;0.70;;;;;;;25.07;35.73;99181.88;5072954;28;20077;-71
2022/06/17 05:37:53;;;;;;;5.88;1.10;;;;;;;25.07;36.12;99183.75;5073391;28;20061;-70
2022/06/17 05:40:19;;;;;;;2.83;1.10;;;;;;;25.05;36.06;99177.72;5072712;28;20067;-69
2022/06/17 05:42:46;;;;;;;1.42;0.80;;;;;;;25.01;36.47;99176.53;5073125;28;20036;-70
2022/06/17 05:45:27;;;;;;;2.22;0.60;;;;;;;25.03;36.19;99183.34;5073113;28;20036;-69
2022/06/17 05:47:53;;;;;;;0.93;0.63;;;;;;;25.04;36.19;99176.88;5072918;28;20467;-70
2022/06/17 05:50:20;;;;;;;1.52;0.90;;;;;;;25.05;35.71;99183.16;5073302;28;20173;-71
2022/06/17 05:52:55;;;;;;;0.88;0.70;;;;;;;25.01;35.45;99182.75;5075713;28;20035;-69
2022/06/17 05:55:22;;;;;;;2.88;0.70;;;;;;;24.97;35.55;99174.25;5072470;28;20036;-71
2022/06/17 05:57:48;;;;;;;3.42;0.57;;;;;;;24.95;35.58;99180.94;5073180;28;20991;-69
2022/06/17 06:00:14;;;;;;;1.90;0.50;;;;;;;24.91;35.45;99180.59;5072433;28;20665;-70
2022/06/17 06:02:40;;;;;;;4.93;1.30;;;;;;;24.90;35.45;99167.25;5072591;28;20107;-70
2022/06/17 06:05:07;;;;;;;9.27;3.15;;;;;;;24.89;35.14;99165.59;5072872;28;20127;-69
2022/06/17 06:07:33;;;;;;;8.10;3.08;;;;;;;24.92;35.55;99159.75;5072648;28;20028;-69
2022/06/17 06:09:58;;;;;;;4.95;2.83;;;;;;;24.94;35.50;99166.56;5072478;28;20058;-69
2022/06/17 06:12:53;;;;;;;6.53;3.20;;;;;;;24.97;35.55;99159.91;5078358;28;20036;-69
2022/06/17 06:15:11;;;;;;;17.23;15.65;;;;;;;24.99;35.25;99164.03;5072510;28;20519;-69
2022/06/17 06:17:36;;;;;;;118.15;108.05;;;;;;;25.02;35.37;99165.47;5072601;28;20033;-70
2022/06/17 06:20:02;;;;;;;55.97;50.72;;;;;;;25.03;35.38;99161.69;5072707;28;20404;-69
2022/06/17 06:22:28;;;;;;;37.13;33.80;;;;;;;25.04;35.30;99154.41;5072692;28;20391;-69
2022/06/17 06:24:53;;;;;;;37.72;33.97;;;;;;;25.03;35.31;99144.66;5072462;28;20044;-70
2022/06/17 06:27:19;;;;;;;32.38;29.50;;;;;;;25.02;34.87;99160.03;5071908;28;20056;-71
2022/06/17 06:29:45;;;;;;;35.42;31.77;;;;;;;24.99;35.11;99158.63;5072388;28;20043;-68
2022/06/17 06:32:10;;;;;;;32.47;29.30;;;;;;;24.94;35.42;99150.34;5072122;28;20111;-69
2022/06/17 06:34:36;;;;;;;26.17;23.60;;;;;;;24.93;35.35;99154.09;5072558;28;20092;-69
2022/06/17 06:37:02;;;;;;;18.20;16.30;;;;;;;24.91;35.18;99148.09;5072692;28;20507;-69
2022/06/17 06:39:27;;;;;;;19.27;17.58;;;;;;;24.88;35.61;99148.56;5072316;28;20033;-69
2022/06/17 06:41:53;;;;;;;17.27;15.50;;;;;;;24.86;35.37;99150.66;5076509;28;20644;-69
2022/06/17 06:44:18;;;;;;;13.13;11.75;;;;;;;24.85;35.72;99149.00;5072239;28;20438;-70
2022/06/17 06:46:44;;;;;;;9.55;8.55;;;;;;;24.82;35.98;99147.56;5072381;28;20044;-69
2022/06/17 06:49:09;;;;;;;7.75;6.95;;;;;;;24.80;35.43;99133.44;5072370;28;20124;-70
2022/06/17 06:51:35;;;;;;;9.65;7.78;;;;;;;24.81;35.86;99142.38;5072247;28;20123;-69
2022/06/17 06:54:00;;;;;;;9.57;5.78;;;;;;;24.80;35.87;99138.00;5072225;28;20068;-70
2022/06/17 06:56:26;;;;;;;6.30;5.00;;;;;;;24.80;35.90;99140.72;5071997;28;20040;-70
2022/06/17 06:58:51;;;;;;;4.05;3.65;;;;;;;24.79;35.75;99139.06;5072363;28;20458;-68
2022/06/17 07:01:17;;;;;;;10.07;3.55;;;;;;;24.77;35.89;99146.59;5072142;28;20040;-71
2022/06/17 07:03:42;;;;;;;4.60;3.90;;;;;;;24.76;35.97;99140.34;5072472;28;20381;-70
2022/06/17 07:06:08;;;;;;;4.57;3.70;;;;;;;24.76;36.03;99143.03;5072039;28;20412;-69
2022/06/17 07:08:35;;;;;;;6.25;3.30;;;;;;;24.77;36.06;99135.78;5072523;28;20056;-70
2022/06/17 07:11:02;;;;;;;2.88;2.40;;;;;;;24.77;36.31;99143.88;5072089;28;20459;-70
2022/06/17 07:13:30;;;;;;;5.07;2.10;;;;;;;24.76;36.26;99132.22;5073454;28;20395;-69
2022/06/17 07:15:56;;;;;;;3.05;1.88;;;;;;;24.77;36.42;99133.06;5071944;28;20119;-70
2022/06/17 07:18:27;;;;;;;2.58;2.05;;;;;;;24.77;36.51;99131.16;5071769;28;20124;-71
2022/06/17 07:21:00;;;;;;;6.07;2.20;;;;;;;24.77;36.42;99128.47;5072082;28;20032;-70
2022/06/17 07:23:30;;;;;;;3.42;1.30;;;;;;;24.77;36.70;99131.16;5072324;28;20056;-69
2022/06/17 07:25:57;;;;;;;4.82;1.70;;;;;;;24.78;36.34;99132.81;5071551;28;20047;-70
2022/06/17 07:28:25;;;;;;;3.58;1.40;;;;;;;24.78;36.60;99124.72;5091375;28;20036;-70
2022/06/17 07:30:52;;;;;;;2.22;1.35;;;;;;;24.78;36.58;99130.13;5095170;28;20043;-70
2022/06/17 07:33:20;;;;;;;2.00;1.20;;;;;;;24.77;36.23;99123.06;5077751;28;20036;-71
2022/06/17 07:35:47;;;;;;;3.42;1.10;;;;;;;24.77;36.45;99127.66;5075657;28;20124;-71
2022/06/17 07:41:02;;;;;;;1.13;0.80;;;;;;;24.72;36.09;99119.38;5077764;28;20039;-70
2022/06/17 07:43:27;;;;;;;5.47;1.50;;;;;;;24.69;36.26;99117.91;5095728;28;20059;-70
2022/06/17 07:45:53;;;;;;;3.63;1.08;;;;;;;24.70;36.56;99114.19;5079344;28;20263;-70
2022/06/17 07:48:19;;;;;;;2.75;1.25;;;;;;;24.72;36.44;99124.78;5075044;28;20036;-71
2022/06/17 07:50:45;;;;;;;3.40;1.25;;;;;;;24.71;36.68;99121.22;5075054;28;20403;-71
2022/06/17 07:53:13;;;;;;;3.22;1.15;;;;;;;24.72;36.18;99122.88;5075244;28;20036;-71
2022/06/17 07:55:39;;;;;;;3.20;1.02;;;;;;;24.71;36.22;99120.44;5075443;28;20036;-71
2022/06/17 07:58:05;;;;;;;2.20;1.00;;;;;;;24.68;35.90;99119.78;5075275;28;20040;-72
2022/06/17 08:00:37;;;;;;;3.45;1.02;;;;;;;24.63;36.22;99125.03;5074885;28;20124;-72
2022/06/17 08:03:04;;;;;;;2.42;0.93;;;;;;;24.61;35.98;99121.75;5084644;28;20027;-71
2022/06/17 08:05:31;;;;;;;1.65;0.80;;;;;;;24.60;36.44;99117.38;5094959;28;20038;-71
2022/06/17 08:07:57;;;;;;;1.98;0.90;;;;;;;24.59;36.50;99115.72;5081269;28;20131;-72
2022/06/17 08:10:27;;;;;;;5.75;0.98;;;;;;;24.59;36.44;99118.44;5074945;28;20043;-72
2022/06/17 08:12:53;;;;;;;2.15;0.80;;;;;;;24.58;36.26;99110.53;5076415;28;20123;-72
2022/06/17 08:15:19;;;;;;;1.80;0.80;;;;;;;24.62;36.47;99112.59;5095059;28;20050;-72
2022/06/17 08:17:45;;;;;;;3.15;0.85;;;;;;;24.64;36.49;99105.03;5082856;28;20032;-71
2022/06/17 08:20:32;;;;;;;3.13;1.00;;;;;;;24.66;36.43;99107.53;5074370;28;20036;-71
2022/06/17 08:22:57;;;;;;;1.85;0.85;;;;;;;24.65;36.35;99101.28;5074230;28;20039;-73
2022/06/17 08:25:23;;;;;;;0.90;0.75;;;;;;;24.67;36.38;99110.00;5074664;28;20058;-71
2022/06/17 08:27:53;;;;;;;5.90;1.35;;;;;;;24.70;36.15;99097.97;5074156;28;20469;-71
2022/06/17 08:30:22;;;;;;;6.82;2.60;;;;;;;24.71;36.38;99105.00;5074663;28;20071;-71
2022/06/17 08:32:50;;;;;;;1.60;1.15;;;;;;;24.72;36.12;99103.13;5074092;28;20082;-71
2022/06/17 08:35:21;;;;;;;2.05;1.00;;;;;;;24.71;36.15;99094.19;5074360;28;20040;-71
2022/06/17 08:37:47;;;;;;;;;;;;;;;24.63;36.12;99099.88;5074596;28;20568;-69
2022/06/17 08:40:36;;;;;;;2.08;0.93;;;;;;;24.64;36.16;99098.81;5073901;28;19973;-71
2022/06/17 08:43:19;;;;;;;3.22;1.13;;;;;;;24.65;36.48;99097.78;5073722;28;20032;-70
2022/06/17 08:46:09;;;;;;;2.95;1.40;;;;;;;24.65;36.52;99105.88;5074206;28;20032;-70
2022/06/17 08:48:53;;;;;;;2.35;0.90;;;;;;;24.64;36.67;99099.63;5073881;28;20037;-71
2022/06/17 08:51:39;;;;;;;3.45;1.42;;;;;;;24.65;36.35;99116.72;5074078;28;20066;-71
2022/06/17 08:54:28;;;;;;;2.17;1.60;;;;;;;24.65;36.67;99124.81;5078663;28;20039;-71
2022/06/17 08:57:03;;;;;;;3.30;2.05;;;;;;;24.62;36.81;99145.03;5094206;28;20402;-72
2022/06/17 08:59:38;;;;;;;5.30;1.92;;;;;;;24.62;37.00;99150.44;5094490;28;20070;-68
2022/06/17 09:02:21;;;;;;;4.88;2.00;;;;;;;24.61;36.75;99134.44;5086051;28;20036;-70
2022/06/17 09:05:05;;;;;;;4.20;1.25;;;;;;;24.59;36.78;99144.63;5094167;28;20058;-70
2022/06/17 09:07:58;;;;;;;5.00;1.00;;;;;;;24.56;37.21;99131.59;5093915;28;20103;-68
2022/06/17 09:10:46;;;;;;;3.50;1.13;;;;;;;24.55;37.19;99138.03;5094361;28;20561;-69
2022/06/17 09:13:56;;;;;;;5.25;1.00;;;;;;;24.50;37.54;99136.81;5079530;28;20499;-69
2022/06/17 09:16:52;;;;;;;1.98;1.15;;;;;;;24.47;37.21;99128.34;5053693;28;20044;-69
2022/06/17 09:19:27;;;;;;;5.22;0.93;;;;;;;24.47;37.56;99131.84;5073279;28;20029;-68
2022/06/17 09:21:55;;;;;;;1.60;0.88;;;;;;;24.47;37.37;99131.03;5073495;28;20083;-68
2022/06/17 09:24:43;;;;;;;4.18;0.75;;;;;;;24.49;37.87;99134.31;5073069;28;20040;-70
2022/06/17 09:27:15;;;;;;;2.20;1.15;;;;;;;24.49;37.69;99128.91;5073968;28;20052;-69
2022/06/17 09:30:03;;;;;;;4.68;1.15;;;;;;;24.49;37.66;99124.34;5073423;28;20033;-69
2022/06/17 09:32:31;;;;;;;3.05;1.00;;;;;;;24.50;37.55;99126.00;5073123;28;20040;-70
2022/06/17 09:35:10;;;;;;;1.58;0.60;;;;;;;24.52;37.45;99128.47;5072808;28;20549;-69
2022/06/17 09:37:55;;;;;;;4.57;0.82;;;;;;;24.53;37.42;99122.84;5073311;28;20043;-70
2022/06/17 09:40:31;;;;;;;6.05;1.10;;;;;;;24.53;37.75;99125.56;5073319;28;20028;-69
2022/06/17 09:43:15;;;;;;;1.70;0.88;;;;;;;24.53;37.26;99119.31;5090848;28;20028;-70
2022/06/17 09:45:48;;;;;;;1.92;0.68;;;;;;;24.50;37.37;99119.75;5093412;28;20028;-71
2022/06/17 09:48:34;;;;;;;5.03;1.13;;;;;;;24.48;37.10;99121.88;5082828;28;20066;-68
2022/06/17 09:51:21;;;;;;;3.17;1.00;;;;;;;24.47;37.00;99114.81;5073183;28;20036;-70
2022/06/17 09:53:54;;;;;;;3.38;0.85;;;;;;;24.47;37.29;99114.81;5072862;28;20043;-69
2022/06/17 09:56:32;;;;;;;4.28;1.00;;;;;;;24.46;36.92;99116.66;5072867;28;20060;-70
2022/06/17 09:58:57;;;;;;;4.00;0.80;;;;;;;24.47;37.51;99120.22;5072679;28;20029;-70
2022/06/17 10:01:24;;;;;;;2.50;0.90;;;;;;;24.47;37.47;99110.22;5072850;28;20033;-70
2022/06/17 10:03:50;;;;;;;3.55;1.45;;;;;;;24.49;37.21;99112.69;5073754;28;20122;-70
2022/06/17 10:06:45;;;;;;;7.95;1.35;;;;;;;24.49;37.50;99099.16;5072816;28;20516;-70
2022/06/17 10:09:32;;;;;;;1.83;0.90;;;;;;;24.48;37.50;99101.06;5072959;28;20656;-70
2022/06/17 10:12:25;;;;;;;1.20;0.70;;;;;;;24.49;37.29;99099.16;5078311;28;20491;-70
2022/06/17 10:15:08;;;;;;;2.25;1.13;;;;;;;24.46;37.16;99091.53;5076019;28;20039;-68
2022/06/17 10:20:55;;;;;;;1.55;0.80;;;;;;;24.47;37.41;99087.78;5088870;28;20090;-68
2022/06/17 10:23:45;;;;;;;1.42;0.90;;;;;;;24.48;37.41;99073.19;5072309;28;20071;-71
2022/06/17 10:26:29;;;;;;;1.70;0.77;;;;;;;24.49;37.28;99066.72;5072257;28;20036;-69
2022/06/17 10:29:16;;;;;;;2.72;0.90;;;;;;;24.51;37.66;99059.19;5073136;28;20154;-70
2022/06/17 10:31:45;;;;;;;2.42;0.80;;;;;;;24.51;37.48;99059.19;5081217;28;20047;-70
2022/06/17 10:34:25;;;;;;;3.55;0.93;;;;;;;24.52;37.64;99056.28;5097241;28;20028;-70
2022/06/17 10:36:54;;;;;;;4.68;0.82;;;;;;;24.54;38.01;99058.75;5106327;28;20395;-69
2022/06/17 10:39:23;;;;;;;1.35;0.95;;;;;;;24.57;37.83;99057.47;5078262;28;20075;-70
2022/06/17 10:41:50;;;;;;;1.65;1.00;;;;;;;24.57;37.75;99063.72;5082323;28;20028;-71
2022/06/17 10:44:21;;;;;;;3.70;0.85;;;;;;;24.58;37.87;99048.31;5092551;28;20164;-70
2022/06/17 10:46:49;;;;;;;;;;;;;;;24.52;37.66;99044.63;5092917;28;20043;-69
2022/06/17 10:49:37;;;;;;;2.58;1.10;;;;;;;24.53;37.51;99049.84;5082693;28;19924;-70
2022/06/17 10:52:17;;;;;;;1.65;0.93;;;;;;;24.56;37.65;99048.56;5081947;28;20513;-70
2022/06/17 10:54:44;;;;;;;1.98;1.02;;;;;;;24.56;37.57;99047.75;5092327;28;20092;-71
2022/06/17 10:57:21;;;;;;;2.58;1.08;;;;;;;24.57;37.52;99061.03;5092296;28;20088;-70
2022/06/17 10:59:46;;;;;;;1.75;0.90;;;;;;;24.58;37.74;99057.28;5081558;28;20475;-70
2022/06/17 11:02:21;;;;;;;1.60;1.10;;;;;;;24.57;37.47;99054.78;5073174;28;20097;-71
2022/06/17 11:04:55;;;;;;;1.95;1.00;;;;;;;24.44;37.81;99061.16;5086798;28;20028;-71
2022/06/17 11:07:52;;;;;;;2.22;0.98;;;;;;;24.41;37.78;99069.72;5075963;28;20040;-70
2022/06/17 11:10:25;;;;;;;2.17;1.02;;;;;;;24.40;38.29;99068.06;5062450;28;20062;-71
2022/06/17 11:13:02;;;;;;;4.25;1.10;;;;;;;24.40;38.21;99066.19;5077322;28;20032;-69
2022/06/17 11:15:39;;;;;;;1.90;1.00;;;;;;;24.41;38.34;99069.72;5086636;28;20056;-70
2022/06/17 11:18:14;;;;;;;3.78;1.10;;;;;;;24.35;38.48;99064.16;5075883;28;20098;-71
2022/06/17 11:20:40;;;;;;;3.00;0.90;;;;;;;24.28;38.38;99052.59;5075770;28;20036;-70
2022/06/17 11:23:17;;;;;;;1.80;0.73;;;;;;;24.26;38.33;99060.09;5076377;28;20041;-71
2022/06/17 11:25:43;;;;;;;2.28;1.00;;;;;;;24.23;38.73;99053.25;5076007;28;20028;-70
2022/06/17 11:28:22;;;;;;;3.60;0.85;;;;;;;24.26;38.77;99067.38;5075244;28;20512;-69
2022/06/17 11:31:00;;;;;;;2.90;1.10;;;;;;;24.23;38.67;99076.75;5075410;28;20115;-69
2022/06/17 11:33:32;;;;;;;3.10;1.00;;;;;;;24.20;38.56;99078.03;5075087;28;20033;-71
2022/06/17 11:36:16;;;;;;;3.58;0.93;;;;;;;24.20;38.78;99071.78;5075554;28;20055;-71
2022/06/17 11:38:43;;;;;;;5.07;1.65;;;;;;;24.19;39.16;99080.97;5075237;28;20036;-69
2022/06/17 11:41:09;;;;;;;5.00;1.00;;;;;;;24.16;39.19;99067.88;5075637;28;20040;-71
2022/06/17 11:43:38;;;;;;;5.30;1.30;;;;;;;24.16;39.66;99081.41;5078963;28;20502;-69
2022/06/17 11:46:17;;;;;;;6.25;1.20;;;;;;;24.12;40.17;99093.69;5075092;28;20032;-70
2022/06/17 11:48:47;;;;;;;4.85;1.30;;;;;;;24.04;40.97;99076.69;5057182;28;20450;-70
2022/06/17 11:51:14;;;;;;;3.88;1.25;;;;;;;23.88;40.97;99079.94;5074933;28;20036;-70
2022/06/17 11:53:52;;;;;;;2.70;0.90;;;;;;;23.81;41.07;99085.38;5081727;28;20511;-70
2022/06/17 11:56:37;;;;;;;5.78;1.48;;;;;;;23.78;40.89;99081.22;5075173;28;20127;-69
2022/06/17 11:59:12;;;;;;;5.50;1.13;;;;;;;23.80;41.53;99082.88;5075128;28;20491;-70
2022/06/17 12:01:38;;;;;;;1.73;1.13;;;;;;;23.77;41.66;99074.16;5075151;28;20029;-69
2022/06/17 12:04:05;;;;;;;3.35;1.13;;;;;;;23.78;41.83;99072.31;5091853;28;20055;-70
2022/06/17 12:06:45;;;;;;;3.10;1.13;;;;;;;23.78;41.83;99062.31;5095144;28;20438;-70